Time;durP1;ratioP1;P1;durP2;ratioP2;P2;SDS_P1;SDS_P2;PMS_P1;PMS_P2;Temp;Humidity;BMP_temperature;BMP_pressure;BME280_temperature;BME280_humidity;BME280_pressure;Samples;Min_cycle;Max_cycle;Signal;HPM_P1;HPM_P2
2023/05/21 00:00:42;;;;;;;;;;;19.30;72.90;;;;;;5077639;28;20011;-75
2023/05/21 00:03:12;;;;;;;;;;;19.30;73.10;;;;;;5081355;28;19984;-75
2023/05/21 00:05:39;;;;;;;;;;;19.30;73.20;;;;;;5081833;28;19975;-76
2023/05/21 00:08:06;;;;;;;;;;;19.20;73.20;;;;;;5080296;28;19998;-75
2023/05/21 00:10:32;;;;;;;;;;;19.20;73.30;;;;;;5082487;28;19979;-75
2023/05/21 00:13:00;;;;;;;;;;;19.20;73.40;;;;;;5085264;28;19975;-75
2023/05/21 00:15:27;;;;;;;;;;;19.20;73.50;;;;;;5076823;28;19995;-75
2023/05/21 00:17:53;;;;;;;;;;;19.20;73.40;;;;;;5082344;28;19991;-75
2023/05/21 00:20:20;;;;;;;;;;;19.10;73.50;;;;;;5080000;28;20086;-75
2023/05/21 00:22:47;;;;;;;;;;;19.10;74.30;;;;;;5083172;28;19982;-75
2023/05/21 00:25:13;;;;;;;;;;;19.10;73.70;;;;;;5083723;28;19975;-75
2023/05/21 00:27:40;;;;;;;;;;;19.10;73.80;;;;;;5083670;28;19991;-74
2023/05/21 00:30:08;;;;;;;;;;;19.10;73.80;;;;;;5082123;28;19978;-75
2023/05/21 00:32:35;;;;;;;;;;;19.10;73.80;;;;;;5081695;28;19990;-75
2023/05/21 00:35:02;;;;;;;;;;;19.00;73.90;;;;;;5078981;28;20014;-75
2023/05/21 00:37:33;;;;;;;;;;;19.00;73.90;;;;;;5085069;28;20129;-75
2023/05/21 00:39:59;;;;;;;;;;;19.00;74.00;;;;;;5082747;28;20018;-75
2023/05/21 00:42:26;;;;;;;;;;;19.00;74.10;;;;;;5081988;28;20429;-75
2023/05/21 00:44:53;;;;;;;;;;;19.00;74.10;;;;;;5084559;28;20284;-75
2023/05/21 00:47:21;;;;;;;;;;;19.00;74.20;;;;;;5081975;28;20444;-75
2023/05/21 00:49:50;;;;;;;;;;;19.00;74.30;;;;;;5079656;28;19979;-75
2023/05/21 00:52:19;;;;;;;;;;;18.90;74.30;;;;;;5080314;28;19975;-75
2023/05/21 00:54:46;;;;;;;;;;;18.90;74.30;;;;;;5080412;28;19975;-75
2023/05/21 00:57:13;;;;;;;;;;;18.90;74.40;;;;;;5078358;28;19994;-75
2023/05/21 00:59:39;;;;;;;;;;;18.90;74.70;;;;;;5081839;28;20014;-76
2023/05/21 01:02:08;;;;;;;;;;;18.80;74.70;;;;;;5081705;28;20504;-75
2023/05/21 01:04:36;;;;;;;;;;;18.80;74.70;;;;;;5080592;28;19990;-74
2023/05/21 01:07:02;;;;;;;;;;;18.80;74.80;;;;;;5077207;28;20002;-75
2023/05/21 01:09:29;;;;;;;;;;;18.80;74.70;;;;;;5078491;28;19979;-73
2023/05/21 01:11:56;;;;;;;;;;;18.80;74.70;;;;;;5080696;28;20294;-75
2023/05/21 01:14:23;;;;;;;;;;;18.70;74.70;;;;;;5079466;28;19975;-74
2023/05/21 01:16:51;;;;;;;;;;;18.70;74.80;;;;;;5074869;28;19995;-75
2023/05/21 01:19:19;;;;;;;;;;;18.70;75.00;;;;;;5075115;28;19995;-75
2023/05/21 01:21:49;;;;;;;;;;;18.70;75.00;;;;;;5077849;28;19975;-75
2023/05/21 01:24:18;;;;;;;;;;;18.70;75.20;;;;;;5080974;28;20066;-75
2023/05/21 01:26:45;;;;;;;;;;;18.70;75.10;;;;;;5079771;28;20564;-75
2023/05/21 01:29:12;;;;;;;;;;;18.60;75.10;;;;;;5075937;28;19993;-75
2023/05/21 01:31:45;;;;;;;;;;;18.60;75.30;;;;;;5078892;28;20087;-75
2023/05/21 01:34:12;;;;;;;;;;;18.60;75.50;;;;;;5083516;28;20031;-75
2023/05/21 01:36:42;;;;;;;;;;;18.60;75.50;;;;;;5076912;28;20016;-76
2023/05/21 01:39:13;;;;;;;;;;;18.60;75.50;;;;;;5081299;28;19999;-74
2023/05/21 01:41:43;;;;;;;;;;;18.60;75.40;;;;;;5077906;28;19983;-75
2023/05/21 01:44:10;;;;;;;;;;;18.60;75.50;;;;;;5073740;28;19975;-75
2023/05/21 01:46:37;;;;;;;;;;;18.50;75.60;;;;;;5075437;28;20014;-75
2023/05/21 01:49:05;;;;;;;;;;;18.50;75.70;;;;;;5081616;28;19982;-75
2023/05/21 01:51:32;;;;;;;;;;;18.50;75.80;;;;;;5078001;28;20129;-75
2023/05/21 01:53:58;;;;;;;;;;;18.50;75.90;;;;;;5079082;28;19982;-75
2023/05/21 01:56:27;;;;;;;;;;;18.50;76.00;;;;;;5079804;28;19998;-75
2023/05/21 01:58:55;;;;;;;;;;;18.40;76.00;;;;;;5078281;28;20081;-76
2023/05/21 02:01:22;;;;;;;;;;;18.50;76.10;;;;;;5079171;28;19995;-75
2023/05/21 02:03:49;;;;;;;;;;;18.40;76.00;;;;;;5078782;28;20368;-74
2023/05/21 02:06:16;;;;;;;;;;;18.40;76.10;;;;;;5077628;28;19979;-75
2023/05/21 02:08:44;;;;;;;;;;;18.40;76.20;;;;;;5079511;28;21428;-75
2023/05/21 02:11:10;;;;;;;;;;;18.30;76.10;;;;;;5079212;28;20401;-75
2023/05/21 02:13:41;;;;;;;;;;;18.30;76.10;;;;;;5077765;28;20411;-75
2023/05/21 02:16:10;;;;;;;;;;;18.30;76.20;;;;;;5082369;28;19999;-75
2023/05/21 02:18:37;;;;;;;;;;;18.30;76.20;;;;;;5076828;28;20003;-75
2023/05/21 02:21:03;;;;;;;;;;;18.30;76.30;;;;;;5075621;28;19979;-75
2023/05/21 02:23:30;;;;;;;;;;;18.30;76.40;;;;;;5081426;28;19990;-75
2023/05/21 02:25:56;;;;;;;;;;;18.30;76.50;;;;;;5081201;28;19982;-75
2023/05/21 02:28:23;;;;;;;;;;;18.30;76.50;;;;;;5076172;28;19999;-75
2023/05/21 02:30:50;;;;;;;;;;;18.30;76.60;;;;;;5082571;28;20097;-75
2023/05/21 02:33:19;;;;;;;;;;;18.20;76.70;;;;;;5084580;28;19975;-75
2023/05/21 02:35:45;;;;;;;;;;;18.20;76.70;;;;;;5077976;28;19982;-75
2023/05/21 02:38:12;;;;;;;;;;;18.20;76.90;;;;;;5080847;28;19998;-75
2023/05/21 02:40:39;;;;;;;;;;;18.20;77.00;;;;;;5083600;28;19997;-75
2023/05/21 02:43:05;;;;;;;;;;;18.20;77.00;;;;;;5078424;28;20018;-75
2023/05/21 02:45:32;;;;;;;;;;;18.20;77.10;;;;;;5078996;28;19995;-75
2023/05/21 02:47:58;;;;;;;;;;;18.10;77.10;;;;;;5079093;28;19990;-75
2023/05/21 02:50:26;;;;;;;;;;;18.10;77.20;;;;;;5078066;28;19978;-75
2023/05/21 02:52:53;;;;;;;;;;;18.10;77.20;;;;;;5078225;28;20016;-75
2023/05/21 02:55:20;;;;;;;;;;;18.00;77.20;;;;;;5085815;28;19982;-75
2023/05/21 02:57:46;;;;;;;;;;;18.00;78.00;;;;;;5081313;28;20056;-75
2023/05/21 03:00:14;;;;;;;;;;;18.00;77.30;;;;;;5073461;28;20081;-75
2023/05/21 03:02:42;;;;;;;;;;;18.00;77.50;;;;;;5077045;28;19975;-75
2023/05/21 03:05:09;;;;;;;;;;;18.00;77.60;;;;;;5072422;28;19975;-75
2023/05/21 03:07:36;;;;;;;;;;;17.90;77.70;;;;;;5075809;28;19995;-75
2023/05/21 03:10:04;;;;;;;;;;;17.90;77.70;;;;;;5079300;28;19975;-74
2023/05/21 03:12:30;;;;;;;;;;;17.90;77.90;;;;;;5076741;28;19990;-75
2023/05/21 03:14:57;;;;;;;;;;;17.90;78.00;;;;;;5079330;28;19979;-75
2023/05/21 03:17:23;;;;;;;;;;;17.90;78.00;;;;;;5080534;28;19995;-74
2023/05/21 03:19:50;;;;;;;;;;;17.90;78.20;;;;;;5077867;28;19995;-75
2023/05/21 03:22:18;;;;;;;;;;;17.90;78.20;;;;;;5082677;28;19975;-75
2023/05/21 03:24:47;;;;;;;;;;;17.80;78.30;;;;;;5085180;28;20010;-75
2023/05/21 03:27:14;;;;;;;;;;;17.80;78.40;;;;;;5083409;28;20002;-75
2023/05/21 03:29:42;;;;;;;;;;;17.70;78.40;;;;;;5083749;28;20370;-75
2023/05/21 03:32:08;;;;;;;;;;;17.70;78.50;;;;;;5082514;28;19998;-75
2023/05/21 03:34:35;;;;;;;;;;;17.70;78.60;;;;;;5083568;28;19983;-74
2023/05/21 03:37:01;;;;;;;;;;;17.70;78.70;;;;;;5081853;28;20009;-75
2023/05/21 03:39:28;;;;;;;;;;;17.70;78.80;;;;;;5084738;28;19991;-75
2023/05/21 03:41:55;;;;;;;;;;;17.60;78.80;;;;;;5083289;28;20360;-75
2023/05/21 03:44:22;;;;;;;;;;;17.60;79.00;;;;;;5081447;28;20723;-75
2023/05/21 03:46:49;;;;;;;;;;;17.60;79.00;;;;;;5084665;28;20476;-75
2023/05/21 03:49:15;;;;;;;;;;;17.60;79.10;;;;;;5080165;28;19975;-75
2023/05/21 03:51:42;;;;;;;;;;;17.60;79.30;;;;;;5080232;28;19978;-74
2023/05/21 03:54:08;;;;;;;;;;;17.60;79.30;;;;;;5081337;28;19995;-75
2023/05/21 03:56:35;;;;;;;;;;;17.50;79.30;;;;;;5081355;28;19999;-74
2023/05/21 03:59:02;;;;;;;;;;;17.50;79.30;;;;;;5082214;28;20440;-75
2023/05/21 04:01:29;;;;;;;;;;;17.50;79.40;;;;;;5080127;28;20002;-75
2023/05/21 04:03:56;;;;;;;;;;;17.50;79.50;;;;;;5083850;28;20359;-75
2023/05/21 04:06:22;;;;;;;;;;;17.40;79.50;;;;;;5078346;28;20788;-75
2023/05/21 04:08:49;;;;;;;;;;;17.40;79.60;;;;;;5082370;28;19986;-75
2023/05/21 04:11:15;;;;;;;;;;;17.40;79.80;;;;;;5082784;28;19982;-74
2023/05/21 04:13:42;;;;;;;;;;;17.40;79.90;;;;;;5081603;28;19987;-74
2023/05/21 04:16:13;;;;;;;;;;;17.40;80.00;;;;;;5083001;28;19991;-74
2023/05/21 04:18:39;;;;;;;;;;;17.30;80.00;;;;;;5079555;28;20852;-74
2023/05/21 04:21:06;;;;;;;;;;;17.30;80.10;;;;;;5080956;28;19998;-74
2023/05/21 04:23:35;;;;;;;;;;;17.30;80.20;;;;;;5087022;28;20025;-74
2023/05/21 04:26:02;;;;;;;;;;;17.30;80.30;;;;;;5088297;28;20202;-75
2023/05/21 04:28:28;;;;;;;;;;;17.30;80.40;;;;;;5082669;28;19998;-75
2023/05/21 04:30:55;;;;;;;;;;;17.20;80.40;;;;;;5082112;28;19991;-75
2023/05/21 04:33:24;;;;;;;;;;;17.20;80.40;;;;;;5083155;28;20097;-74
2023/05/21 04:35:51;;;;;;;;;;;17.20;80.40;;;;;;5079052;28;19983;-74
2023/05/21 04:38:18;;;;;;;;;;;17.20;80.50;;;;;;5082826;28;19995;-74
2023/05/21 04:40:45;;;;;;;;;;;17.20;80.60;;;;;;5081638;28;20018;-74
2023/05/21 04:43:11;;;;;;;;;;;17.20;80.60;;;;;;5081759;28;19987;-75
2023/05/21 04:45:38;;;;;;;;;;;17.20;80.60;;;;;;5082442;28;20421;-74
2023/05/21 04:48:06;;;;;;;;;;;17.10;80.60;;;;;;5082544;28;20075;-75
2023/05/21 04:50:34;;;;;;;;;;;17.10;80.70;;;;;;5081574;28;20018;-75
2023/05/21 04:53:02;;;;;;;;;;;17.10;80.70;;;;;;5075497;28;19979;-75
2023/05/21 04:55:28;;;;;;;;;;;17.10;80.80;;;;;;5083887;28;19975;-75
2023/05/21 04:57:55;;;;;;;;;;;17.10;80.80;;;;;;5081633;28;20056;-74
2023/05/21 05:00:24;;;;;;;;;;;17.00;80.80;;;;;;5081757;28;19991;-75
2023/05/21 05:02:50;;;;;;;;;;;17.00;80.90;;;;;;5082906;28;19986;-75
2023/05/21 05:05:17;;;;;;;;;;;17.00;80.90;;;;;;5076933;28;19982;-74
2023/05/21 05:07:45;;;;;;;;;;;17.00;81.00;;;;;;5077697;28;20065;-75
2023/05/21 05:10:11;;;;;;;;;;;17.00;81.00;;;;;;5076517;28;20405;-74
2023/05/21 05:12:38;;;;;;;;;;;17.00;81.00;;;;;;5081058;28;20035;-74
2023/05/21 05:15:05;;;;;;;;;;;17.00;81.10;;;;;;5078048;28;19975;-75
2023/05/21 05:17:33;;;;;;;;;;;17.00;81.10;;;;;;5081508;28;20002;-74
2023/05/21 05:19:59;;;;;;;;;;;17.00;81.10;;;;;;5070971;28;19991;-75
2023/05/21 05:22:26;;;;;;;;;;;16.90;81.10;;;;;;5078904;28;20074;-75
2023/05/21 05:24:54;;;;;;;;;;;17.00;81.30;;;;;;5083541;28;20698;-75
2023/05/21 05:27:20;;;;;;;;;;;16.90;81.30;;;;;;5080772;28;19995;-75
2023/05/21 05:29:47;;;;;;;;;;;16.90;81.30;;;;;;5078758;28;20253;-74
2023/05/21 05:32:14;;;;;;;;;;;16.90;81.40;;;;;;5080401;28;20002;-75
2023/05/21 05:34:41;;;;;;;;;;;16.90;82.20;;;;;;5081382;28;19986;-74
2023/05/21 05:37:08;;;;;;;;;;;16.90;81.50;;;;;;5080518;28;20002;-74
2023/05/21 05:39:34;;;;;;;;;;;16.90;81.50;;;;;;5082624;28;19978;-74
2023/05/21 05:42:03;;;;;;;;;;;16.90;81.60;;;;;;5081029;28;20013;-75
2023/05/21 05:44:30;;;;;;;;;;;16.90;81.60;;;;;;5080943;28;19979;-75
2023/05/21 05:46:56;;;;;;;;;;;16.90;81.60;;;;;;5078977;28;19998;-75
2023/05/21 05:49:23;;;;;;;;;;;16.90;81.60;;;;;;5071545;28;19979;-75
2023/05/21 05:51:49;;;;;;;;;;;16.90;81.60;;;;;;5068291;28;20438;-74
2023/05/21 05:54:16;;;;;;;;;;;16.90;81.60;;;;;;5075643;28;19982;-75
2023/05/21 05:56:43;;;;;;;;;;;16.90;81.60;;;;;;5072460;28;20667;-75
2023/05/21 05:59:10;;;;;;;;;;;16.90;81.60;;;;;;5074356;28;19978;-75
2023/05/21 06:01:37;;;;;;;;;;;16.90;81.70;;;;;;5075491;28;20063;-75
2023/05/21 06:04:03;;;;;;;;;;;16.90;81.70;;;;;;5076529;28;20664;-75
2023/05/21 06:06:30;;;;;;;;;;;16.90;82.30;;;;;;5080493;28;20048;-75
2023/05/21 06:08:57;;;;;;;;;;;16.90;81.60;;;;;;5079898;28;19983;-75
2023/05/21 06:11:23;;;;;;;;;;;16.90;81.60;;;;;;5076273;28;19998;-75
2023/05/21 06:13:50;;;;;;;;;;;16.90;81.60;;;;;;5075043;28;20681;-75
2023/05/21 06:16:17;;;;;;;;;;;17.00;81.80;;;;;;5075895;28;20078;-75
2023/05/21 06:18:44;;;;;;;;;;;17.00;81.80;;;;;;5063657;28;19990;-74
2023/05/21 06:21:11;;;;;;;;;;;17.00;82.60;;;;;;5070746;28;19991;-75
2023/05/21 06:23:37;;;;;;;;;;;17.00;81.80;;;;;;5072295;28;19979;-75
2023/05/21 06:26:04;;;;;;;;;;;17.00;81.80;;;;;;5075022;28;19982;-74
2023/05/21 06:28:30;;;;;;;;;;;17.00;82.60;;;;;;5074571;28;19987;-74
2023/05/21 06:30:57;;;;;;;;;;;17.00;81.80;;;;;;5072905;28;20090;-75
2023/05/21 06:33:26;;;;;;;;;;;17.00;81.90;;;;;;5072920;28;19986;-75
2023/05/21 06:35:52;;;;;;;;;;;17.00;81.90;;;;;;5071379;28;20037;-74
2023/05/21 06:38:19;;;;;;;;;;;17.00;81.90;;;;;;5074468;28;19995;-75
2023/05/21 06:40:46;;;;;;;;;;;17.00;81.90;;;;;;5071654;28;20376;-75
2023/05/21 06:43:13;;;;;;;;;;;17.00;82.00;;;;;;5074573;28;20457;-75
2023/05/21 06:45:39;;;;;;;;;;;17.10;82.10;;;;;;5071956;28;20014;-75
2023/05/21 06:48:06;;;;;;;;;;;17.10;82.20;;;;;;5074051;28;20492;-74
2023/05/21 06:50:34;;;;;;;;;;;17.10;82.30;;;;;;5073642;28;20468;-75
2023/05/21 06:53:01;;;;;;;;;;;17.10;82.50;;;;;;5077523;28;19979;-75
2023/05/21 06:55:27;;;;;;;;;;;17.10;82.40;;;;;;5074324;28;20014;-75
2023/05/21 06:57:54;;;;;;;;;;;17.10;82.20;;;;;;5076561;28;19995;-75
2023/05/21 07:00:20;;;;;;;;;;;17.20;82.40;;;;;;5075344;28;19983;-75
2023/05/21 07:02:47;;;;;;;;;;;17.20;82.30;;;;;;5083234;28;19975;-76
2023/05/21 07:05:13;;;;;;;;;;;17.20;82.50;;;;;;5077077;28;20014;-75
2023/05/21 07:07:41;;;;;;;;;;;17.20;82.50;;;;;;5076442;28;20090;-75
2023/05/21 07:10:08;;;;;;;;;;;17.20;82.40;;;;;;5078838;28;20019;-76
2023/05/21 07:12:35;;;;;;;;;;;17.20;82.30;;;;;;5076728;28;19986;-74
2023/05/21 07:15:01;;;;;;;;;;;17.30;82.30;;;;;;5073412;28;19975;-75
2023/05/21 07:17:28;;;;;;;;;;;17.30;82.60;;;;;;5074768;28;20002;-75
2023/05/21 07:19:54;;;;;;;;;;;17.30;82.80;;;;;;5069903;28;20554;-74
2023/05/21 07:22:21;;;;;;;;;;;17.30;82.60;;;;;;5065825;28;19995;-75
2023/05/21 07:24:49;;;;;;;;;;;17.30;82.40;;;;;;5073450;28;19983;-75
2023/05/21 07:27:15;;;;;;;;;;;17.30;82.30;;;;;;5079001;28;20532;-75
2023/05/21 07:29:42;;;;;;;;;;;17.40;82.50;;;;;;5077839;28;19979;-76
2023/05/21 07:32:08;;;;;;;;;;;17.40;82.70;;;;;;5068465;28;19990;-75
2023/05/21 07:34:35;;;;;;;;;;;17.40;82.70;;;;;;5078124;28;19983;-74
2023/05/21 07:37:01;;;;;;;;;;;17.40;82.70;;;;;;5079913;28;20003;-74
2023/05/21 07:39:28;;;;;;;;;;;17.40;82.70;;;;;;5075364;28;19979;-75
2023/05/21 07:41:56;;;;;;;;;;;17.40;82.60;;;;;;5077351;28;20656;-75
2023/05/21 07:44:23;;;;;;;;;;;17.40;82.70;;;;;;5073681;28;20825;-74
2023/05/21 07:46:49;;;;;;;;;;;17.50;82.90;;;;;;5073235;28;20476;-75
2023/05/21 07:49:16;;;;;;;;;;;17.50;83.00;;;;;;5076767;28;19982;-75
2023/05/21 07:51:42;;;;;;;;;;;17.50;83.00;;;;;;5069608;28;19986;-75
2023/05/21 07:54:09;;;;;;;;;;;17.50;83.00;;;;;;5075857;28;22148;-75
2023/05/21 07:56:36;;;;;;;;;;;17.50;83.10;;;;;;5075550;28;19992;-76
2023/05/21 07:59:04;;;;;;;;;;;17.60;83.20;;;;;;5072326;28;20216;-75
2023/05/21 08:01:31;;;;;;;;;;;17.60;83.10;;;;;;5069298;28;20003;-75
2023/05/21 08:03:59;;;;;;;;;;;17.60;83.20;;;;;;5075219;28;19983;-76
2023/05/21 08:06:26;;;;;;;;;;;17.60;83.20;;;;;;5073621;28;19998;-75
2023/05/21 08:08:53;;;;;;;;;;;17.60;83.40;;;;;;5072949;28;19975;-75
2023/05/21 08:11:20;;;;;;;;;;;17.70;84.40;;;;;;5076241;28;19975;-70
2023/05/21 08:13:47;;;;;;;;;;;17.70;85.10;;;;;;5091569;28;20009;-70
2023/05/21 08:16:15;;;;;;;;;;;17.80;85.10;;;;;;5081704;28;19991;-70
2023/05/21 08:18:41;;;;;;;;;;;17.80;85.00;;;;;;5078507;28;19978;-70
2023/05/21 08:21:08;;;;;;;;;;;17.80;84.80;;;;;;5078036;28;19986;-69
2023/05/21 08:23:35;;;;;;;;;;;17.80;84.80;;;;;;5087098;28;19987;-69
2023/05/21 08:26:01;;;;;;;;;;;17.90;84.70;;;;;;5083554;28;19986;-70
2023/05/21 08:28:28;;;;;;;;;;;17.90;84.50;;;;;;5086331;28;19991;-70
2023/05/21 08:30:54;;;;;;;;;;;17.90;85.20;;;;;;5091190;28;20093;-70
2023/05/21 08:33:22;;;;;;;;;;;18.00;84.40;;;;;;5089379;28;19983;-69
2023/05/21 08:35:49;;;;;;;;;;;18.00;84.20;;;;;;5080885;28;19990;-69
2023/05/21 08:38:16;;;;;;;;;;;18.00;84.20;;;;;;5083204;28;20459;-70
2023/05/21 08:40:42;;;;;;;;;;;18.10;84.20;;;;;;5080825;28;20002;-70
2023/05/21 08:43:12;;;;;;;;;;;18.10;84.10;;;;;;5080803;28;20518;-69
2023/05/21 08:45:41;;;;;;;;;;;18.20;84.00;;;;;;5082388;28;19998;-70
2023/05/21 08:48:10;;;;;;;;;;;18.20;84.00;;;;;;5082710;28;19994;-70
2023/05/21 08:50:38;;;;;;;;;;;18.20;83.90;;;;;;5090542;28;19978;-70
2023/05/21 08:53:04;;;;;;;;;;;18.30;83.80;;;;;;5083503;28;19975;-70
2023/05/21 08:55:32;;;;;;;;;;;18.30;83.80;;;;;;5088870;28;19975;-70
2023/05/21 08:57:58;;;;;;;;;;;18.30;83.80;;;;;;5082570;28;20490;-70
2023/05/21 09:00:25;;;;;;;;;;;18.40;83.60;;;;;;5076966;28;19986;-70
2023/05/21 09:02:53;;;;;;;;;;;18.40;83.60;;;;;;5086355;28;20512;-70
2023/05/21 09:05:20;;;;;;;;;;;18.50;83.50;;;;;;5087289;28;20054;-76
2023/05/21 09:07:55;;;;;;;;;;;18.50;83.50;;;;;;5081327;28;20542;-76
2023/05/21 09:10:23;;;;;;;;;;;18.50;83.40;;;;;;5071644;28;19982;-76
2023/05/21 09:12:50;;;;;;;;;;;18.60;83.40;;;;;;5077771;28;20448;-76
2023/05/21 09:15:17;;;;;;;;;;;18.60;83.40;;;;;;5077832;28;19975;-76
2023/05/21 09:17:46;;;;;;;;;;;18.70;83.90;;;;;;5078696;28;19999;-76
2023/05/21 09:20:14;;;;;;;;;;;18.70;83.80;;;;;;5078251;28;20009;-75
2023/05/21 09:22:42;;;;;;;;;;;18.80;83.70;;;;;;5079357;28;20615;-76
2023/05/21 09:25:11;;;;;;;;;;;18.90;83.20;;;;;;5083300;28;20814;-75
2023/05/21 09:27:38;;;;;;;;;;;18.90;82.70;;;;;;5079247;28;19995;-75
2023/05/21 09:30:05;;;;;;;;;;;19.00;82.40;;;;;;5082628;28;20461;-76
2023/05/21 09:32:32;;;;;;;;;;;19.10;82.10;;;;;;5079608;28;20562;-76
2023/05/21 09:35:05;;;;;;;;;;;19.10;81.70;;;;;;5075363;28;20542;-76
2023/05/21 09:37:36;;;;;;;;;;;19.20;81.50;;;;;;5076893;28;20006;-76
2023/05/21 09:40:05;;;;;;;;;;;19.20;81.40;;;;;;5079853;28;19975;-76
2023/05/21 09:42:33;;;;;;;;;;;19.30;81.10;;;;;;5086345;28;19995;-76
2023/05/21 09:44:59;;;;;;;;;;;19.40;80.80;;;;;;5082976;28;19982;-75
2023/05/21 09:47:26;;;;;;;;;;;19.40;80.50;;;;;;5083984;28;20024;-76
2023/05/21 09:49:52;;;;;;;;;;;19.50;80.10;;;;;;5072655;28;20021;-76
2023/05/21 09:52:27;;;;;;;;;;;19.60;79.80;;;;;;5080555;28;19981;-76
2023/05/21 09:54:53;;;;;;;;;;;19.70;79.50;;;;;;5084076;28;19980;-76
2023/05/21 09:57:23;;;;;;;;;;;19.80;79.00;;;;;;5077249;28;20083;-76
2023/05/21 09:59:51;;;;;;;;;;;19.80;78.80;;;;;;5071530;28;20020;-75
2023/05/21 10:02:20;;;;;;;;;;;19.90;78.70;;;;;;5071840;28;19994;-76
2023/05/21 10:04:48;;;;;;;;;;;20.00;78.40;;;;;;5070834;28;20059;-76
2023/05/21 10:07:16;;;;;;;;;;;20.10;78.10;;;;;;5080150;28;19995;-76
2023/05/21 10:09:44;;;;;;;;;;;20.20;77.80;;;;;;5076971;28;19975;-76
2023/05/21 10:12:11;;;;;;;;;;;20.30;77.50;;;;;;5080006;28;19994;-76
2023/05/21 10:14:38;;;;;;;;;;;20.30;77.10;;;;;;5079098;28;19986;-76
2023/05/21 10:17:06;;;;;;;;;;;20.40;76.60;;;;;;5070690;28;20002;-76
2023/05/21 10:19:35;;;;;;;;;;;20.50;76.50;;;;;;5075922;28;20819;-76
2023/05/21 10:22:03;;;;;;;;;;;20.50;76.10;;;;;;5077683;28;20013;-76
2023/05/21 10:24:29;;;;;;;;;;;20.60;75.80;;;;;;5063273;28;20099;-76
2023/05/21 10:26:56;;;;;;;;;;;20.60;75.60;;;;;;5075109;28;19995;-74
2023/05/21 10:29:23;;;;;;;;;;;20.70;75.40;;;;;;5080465;28;19975;-70
2023/05/21 10:31:51;;;;;;;;;;;20.80;75.20;;;;;;5080050;28;19999;-70
2023/05/21 10:34:21;;;;;;;;;;;20.80;75.00;;;;;;5078401;28;19982;-71
2023/05/21 10:36:48;;;;;;;;;;;20.80;74.80;;;;;;5075763;28;20052;-70
2023/05/21 10:39:16;;;;;;;;;;;20.90;74.70;;;;;;5076133;28;19986;-70
2023/05/21 10:41:46;;;;;;;;;;;20.90;74.70;;;;;;5076294;28;20633;-70
2023/05/21 10:44:17;;;;;;;;;;;20.90;74.50;;;;;;5073847;28;19983;-75
2023/05/21 10:47:01;;;;;;;;;;;21.00;74.40;;;;;;5073324;28;20101;-76
2023/05/21 10:49:42;;;;;;;;;;;21.00;74.30;;;;;;5076778;28;20469;-76
2023/05/21 10:52:14;;;;;;;;;;;21.00;74.00;;;;;;5074147;28;20115;-77
2023/05/21 10:54:56;;;;;;;;;;;21.00;73.90;;;;;;5078135;28;19985;-77
2023/05/21 10:57:33;;;;;;;;;;;21.10;73.90;;;;;;5078735;28;19994;-77
2023/05/21 11:00:00;;;;;;;;;;;21.10;73.80;;;;;;5078831;28;19978;-77
2023/05/21 11:02:28;;;;;;;;;;;21.20;73.70;;;;;;5073623;28;20687;-77
2023/05/21 11:04:59;;;;;;;;;;;21.20;73.50;;;;;;5076652;28;19982;-76
2023/05/21 11:07:40;;;;;;;;;;;21.30;73.40;;;;;;5072623;28;19999;-75
2023/05/21 11:10:27;;;;;;;;;;;21.30;73.30;;;;;;5076337;28;20068;-76
2023/05/21 11:13:13;;;;;;;;;;;21.30;73.00;;;;;;5071163;28;19986;-76
2023/05/21 11:15:58;;;;;;;;;;;21.40;72.80;;;;;;5073942;28;20002;-77
2023/05/21 11:18:45;;;;;;;;;;;21.50;72.60;;;;;;5068608;28;21833;-76
2023/05/21 11:21:14;;;;;;;;;;;21.60;72.40;;;;;;5073919;28;20507;-76
2023/05/21 11:23:48;;;;;;;;;;;21.70;72.20;;;;;;5076668;28;19998;-75
2023/05/21 11:26:15;;;;;;;;;;;21.80;71.90;;;;;;5079750;28;20345;-76
2023/05/21 11:28:41;;;;;;;;;;;21.80;71.60;;;;;;5079491;28;19978;-76
2023/05/21 11:31:24;;;;;;;;;;;22.00;71.50;;;;;;5076989;28;19990;-76
2023/05/21 11:34:06;;;;;;;;;;;22.10;71.20;;;;;;5072178;28;19983;-76
2023/05/21 11:36:34;;;;;;;;;;;22.10;71.00;;;;;;5079972;28;20009;-76
2023/05/21 11:39:10;;;;;;;;;;;22.20;70.70;;;;;;5089573;28;20081;-76
2023/05/21 11:41:52;;;;;;;;;;;22.30;70.50;;;;;;5080875;28;20410;-75
2023/05/21 11:44:19;;;;;;;;;;;22.30;70.20;;;;;;5079660;28;19983;-76
2023/05/21 11:46:46;;;;;;;;;;;22.40;70.10;;;;;;5079573;28;20119;-76
2023/05/21 11:49:12;;;;;;;;;;;22.40;69.90;;;;;;5085284;28;19981;-76
2023/05/21 11:51:40;;;;;;;;;;;22.40;69.80;;;;;;5076284;28;19975;-76
2023/05/21 11:54:08;;;;;;;;;;;22.50;69.80;;;;;;5083132;28;19986;-76
2023/05/21 11:56:40;;;;;;;;;;;22.50;69.70;;;;;;5078794;28;20200;-75
2023/05/21 11:59:13;;;;;;;;;;;22.50;69.60;;;;;;5080767;28;20056;-76
2023/05/21 12:01:41;;;;;;;;;;;22.60;69.60;;;;;;5079887;28;19996;-76
2023/05/21 12:04:08;;;;;;;;;;;22.60;69.40;;;;;;5084462;28;20533;-76
2023/05/21 12:06:34;;;;;;;;;;;22.70;69.30;;;;;;5080587;28;20002;-76
2023/05/21 12:09:03;;;;;;;;;;;22.70;69.10;;;;;;5083203;28;19986;-75
2023/05/21 12:11:30;;;;;;;;;;;22.80;69.10;;;;;;5084871;28;20517;-76
2023/05/21 12:13:56;;;;;;;;;;;22.80;69.00;;;;;;5079196;28;19987;-76
2023/05/21 12:16:23;;;;;;;;;;;22.90;68.90;;;;;;5079388;28;20495;-76
2023/05/21 12:18:50;;;;;;;;;;;22.90;68.80;;;;;;5078954;28;20297;-76
2023/05/21 12:21:17;;;;;;;;;;;22.90;68.70;;;;;;5076927;28;20056;-76
2023/05/21 12:23:43;;;;;;;;;;;22.90;68.50;;;;;;5082486;28;20567;-76
2023/05/21 12:26:12;;;;;;;;;;;22.90;68.50;;;;;;5081941;28;19979;-75
2023/05/21 12:28:39;;;;;;;;;;;23.00;68.40;;;;;;5085081;28;19986;-75
2023/05/21 12:31:05;;;;;;;;;;;23.00;68.30;;;;;;5075724;28;20859;-75
2023/05/21 12:33:33;;;;;;;;;;;23.00;68.00;;;;;;5082486;28;19986;-75
2023/05/21 12:36:02;;;;;;;;;;;23.10;67.80;;;;;;5079477;28;20445;-75
2023/05/21 12:38:30;;;;;;;;;;;23.10;67.60;;;;;;5081373;28;19995;-75
2023/05/21 12:40:56;;;;;;;;;;;23.20;67.60;;;;;;5084752;28;19975;-76
2023/05/21 12:43:24;;;;;;;;;;;23.30;67.50;;;;;;5078154;28;19991;-76
2023/05/21 12:45:51;;;;;;;;;;;23.30;67.20;;;;;;5080020;28;19995;-75
2023/05/21 12:48:17;;;;;;;;;;;23.30;66.90;;;;;;5081289;28;19995;-76
2023/05/21 12:50:44;;;;;;;;;;;23.30;66.40;;;;;;5079706;28;19975;-76
2023/05/21 12:53:11;;;;;;;;;;;23.40;66.50;;;;;;5079497;28;20453;-76
2023/05/21 12:55:39;;;;;;;;;;;23.40;66.50;;;;;;5079366;28;19980;-76
2023/05/21 12:58:07;;;;;;;;;;;23.50;66.80;;;;;;5082348;28;20034;-76
2023/05/21 13:00:35;;;;;;;;;;;23.50;66.30;;;;;;5073110;28;19999;-76
2023/05/21 13:03:03;;;;;;;;;;;23.50;66.10;;;;;;5078425;28;21390;-78
2023/05/21 13:05:30;;;;;;;;;;;23.60;66.00;;;;;;5087246;28;19971;-76
2023/05/21 13:07:56;;;;;;;;;;;23.60;65.80;;;;;;5081572;28;19993;-75
2023/05/21 13:10:23;;;;;;;;;;;23.60;64.90;;;;;;5080034;28;19979;-76
2023/05/21 13:12:49;;;;;;;;;;;23.70;64.40;;;;;;5077376;28;19971;-77
2023/05/21 13:15:16;;;;;;;;;;;23.70;63.70;;;;;;5073557;28;19979;-77
2023/05/21 13:17:44;;;;;;;;;;;23.80;63.70;;;;;;5072134;28;20056;-76
2023/05/21 13:20:11;;;;;;;;;;;23.80;63.40;;;;;;5068609;28;19975;-76
2023/05/21 13:22:41;;;;;;;;;;;23.80;63.30;;;;;;5074264;28;20587;-76
2023/05/21 13:25:08;;;;;;;;;;;23.90;63.40;;;;;;5076131;28;20512;-76
2023/05/21 13:27:35;;;;;;;;;;;23.90;63.20;;;;;;5078935;28;19995;-76
2023/05/21 13:30:01;;;;;;;;;;;23.90;63.10;;;;;;5079680;28;20745;-76
2023/05/21 13:32:28;;;;;;;;;;;23.90;63.00;;;;;;5076836;28;20088;-76
2023/05/21 13:34:56;;;;;;;;;;;23.90;62.90;;;;;;5072478;28;20537;-76
2023/05/21 13:37:22;;;;;;;;;;;23.90;62.80;;;;;;5083385;28;20107;-76
2023/05/21 13:39:49;;;;;;;;;;;24.00;62.80;;;;;;5078069;28;20368;-76
2023/05/21 13:42:16;;;;;;;;;;;24.00;62.90;;;;;;5082115;28;19975;-76
2023/05/21 13:44:42;;;;;;;;;;;24.00;63.00;;;;;;5072400;28;20842;-76
2023/05/21 13:47:11;;;;;;;;;;;24.00;62.90;;;;;;5074857;28;21388;-76
2023/05/21 13:49:38;;;;;;;;;;;24.10;62.90;;;;;;5083068;28;20729;-76
2023/05/21 13:52:06;;;;;;;;;;;24.10;62.90;;;;;;5076721;28;20849;-76
2023/05/21 13:54:33;;;;;;;;;;;24.10;63.00;;;;;;5076781;28;19979;-76
2023/05/21 13:56:59;;;;;;;;;;;24.10;63.00;;;;;;5083742;28;19995;-76
2023/05/21 13:59:26;;;;;;;;;;;24.20;63.00;;;;;;5076783;28;19979;-76
2023/05/21 14:01:53;;;;;;;;;;;24.20;62.90;;;;;;5063133;28;19991;-76
2023/05/21 14:04:20;;;;;;;;;;;24.20;62.70;;;;;;5065912;28;20526;-76
2023/05/21 14:06:47;;;;;;;;;;;24.20;62.50;;;;;;5060459;28;19996;-77
2023/05/21 14:09:15;;;;;;;;;;;24.20;62.40;;;;;;5067423;28;19975;-77
2023/05/21 14:11:42;;;;;;;;;;;24.20;62.50;;;;;;5061116;28;20504;-76
2023/05/21 14:14:08;;;;;;;;;;;24.30;62.50;;;;;;5062181;28;19979;-76
2023/05/21 14:16:35;;;;;;;;;;;24.30;62.40;;;;;;5062335;28;20010;-76
2023/05/21 14:19:02;;;;;;;;;;;24.30;62.30;;;;;;5065658;28;20856;-75